Time;durP1;ratioP1;P1;durP2;ratioP2;P2;SDS_P1;SDS_P2;PMS_P1;PMS_P2;Temp;Humidity;BMP_temperature;BMP_pressure;BME280_temperature;BME280_humidity;BME280_pressure;Samples;Min_cycle;Max_cycle;Signal;HPM_P1;HPM_P2
2021/12/01 00:01:23;;;;;;;3.30;2.70;;;;;;;8.96;55.96;97949.58;2344933;83;25725;-77
2021/12/01 00:04:44;;;;;;;2.47;2.17;;;;;;;8.94;55.94;97961.30;2342562;84;29764;-76
2021/12/01 00:08:06;;;;;;;3.17;2.65;;;;;;;8.94;55.92;97974.28;2339844;84;25816;-76
2021/12/01 00:11:27;;;;;;;2.62;2.00;;;;;;;8.94;55.93;97988.58;2334492;84;25690;-77
2021/12/01 00:14:48;;;;;;;3.40;2.50;;;;;;;8.92;55.92;97996.81;2334068;84;25733;-77
2021/12/01 00:18:18;;;;;;;3.40;2.62;;;;;;;8.91;55.91;98015.88;2333665;84;25803;-76
2021/12/01 00:21:39;;;;;;;2.85;2.50;;;;;;;8.91;55.91;98021.08;2329210;84;25642;-76
2021/12/01 00:25:00;;;;;;;3.52;2.67;;;;;;;8.90;55.91;98041.41;2344927;83;25548;-77
2021/12/01 00:28:37;;;;;;;3.35;2.92;;;;;;;8.90;55.89;98050.51;2351783;83;25717;-77
2021/12/01 00:31:58;;;;;;;3.15;2.22;;;;;;;8.89;55.88;98073.47;2345143;83;25599;-76
2021/12/01 00:35:20;;;;;;;3.13;2.63;;;;;;;8.88;55.88;98080.00;2350911;83;29008;-76
2021/12/01 00:38:43;;;;;;;2.72;2.47;;;;;;;8.87;55.84;98090.80;2344797;83;25812;-76
2021/12/01 00:42:12;;;;;;;4.78;2.65;;;;;;;8.87;55.84;98101.63;2355373;83;26007;-76
2021/12/01 00:45:33;;;;;;;2.70;2.20;;;;;;;8.87;55.83;98112.02;2356901;83;25556;-77
2021/12/01 00:48:57;;;;;;;3.98;2.98;;;;;;;8.85;55.82;98118.54;2363061;82;25722;-77
2021/12/01 00:52:17;;;;;;;2.90;2.50;;;;;;;8.85;55.82;98134.13;2324853;84;29013;-77
2021/12/01 00:55:51;;;;;;;2.80;2.60;;;;;;;8.83;55.79;98154.05;2362528;82;28957;-76
2021/12/01 00:59:27;;;;;;;3.55;2.77;;;;;;;8.84;55.79;98153.61;2304902;84;25732;-77
2021/12/01 01:02:52;;;;;;;2.67;2.43;;;;;;;8.81;55.77;98153.21;2272753;85;25816;-77
2021/12/01 01:06:13;;;;;;;3.12;2.60;;;;;;;8.81;55.76;98163.59;2276109;85;25743;-78
2021/12/01 01:09:34;;;;;;;3.13;2.57;;;;;;;8.81;55.74;98179.59;2275295;85;30755;-77
2021/12/01 01:16:44;;;;;;;3.62;3.00;;;;;;;8.79;55.72;98197.80;2275957;85;25824;-76
2021/12/01 01:20:11;;;;;;;3.08;2.70;;;;;;;8.77;55.72;98202.13;2276531;85;25707;-77
2021/12/01 01:23:34;;;;;;;2.70;2.45;;;;;;;8.77;55.70;98215.55;2275717;85;25853;-76
2021/12/01 01:26:58;;;;;;;2.83;2.50;;;;;;;8.77;55.70;98229.84;2269531;85;25837;-77
2021/12/01 01:30:26;;;;;;;2.95;2.50;;;;;;;8.75;55.67;98228.56;2266906;85;25738;-77
2021/12/01 01:33:45;;;;;;;3.10;2.80;;;;;;;8.74;55.64;98243.70;2264949;85;26121;-76
2021/12/01 01:37:21;;;;;;;3.22;3.00;;;;;;;8.74;55.63;98246.30;2308163;85;25602;-77
2021/12/01 01:40:42;;;;;;;3.37;3.05;;;;;;;8.72;55.63;98251.52;2326987;84;25907;-77
2021/12/01 01:44:04;;;;;;;3.00;2.80;;;;;;;8.72;55.62;98263.64;2356594;83;25668;-77
2021/12/01 01:47:25;;;;;;;3.05;2.75;;;;;;;8.70;55.60;98264.92;2330244;83;25719;-77
2021/12/01 01:50:52;;;;;;;2.80;2.60;;;;;;;8.69;55.59;98277.93;2357966;82;27097;-77
2021/12/01 01:54:16;;;;;;;3.22;2.92;;;;;;;8.69;55.60;98283.98;2327557;83;25988;-77
2021/12/01 01:57:53;;;;;;;3.62;3.15;;;;;;;8.67;55.57;98283.55;2346400;82;26052;-76
2021/12/01 02:04:59;;;;;;;3.05;2.80;;;;;;;8.67;55.58;98301.33;2359794;83;25679;-77
2021/12/01 02:08:28;;;;;;;3.03;2.83;;;;;;;8.67;55.58;98325.11;2340815;83;27999;-77
2021/12/01 02:11:46;;;;;;;3.12;2.92;;;;;;;8.66;55.59;98332.04;2361737;82;25635;-77
2021/12/01 02:15:08;;;;;;;3.72;3.42;;;;;;;8.66;55.59;98335.94;2340997;84;25693;-78
2021/12/01 02:18:48;;;;;;;3.42;3.22;;;;;;;8.65;55.58;98342.01;2358953;82;25786;-78
2021/12/01 02:22:09;;;;;;;3.27;2.98;;;;;;;8.65;55.59;98345.91;2332601;84;25702;-77
2021/12/01 02:25:30;;;;;;;3.07;2.77;;;;;;;8.63;55.58;98365.81;2357184;82;28497;-77
2021/12/01 02:28:58;;;;;;;2.85;2.65;;;;;;;8.63;55.59;98391.78;2335014;83;26501;-77
2021/12/01 02:32:27;;;;;;;3.77;3.47;;;;;;;8.63;55.60;98405.20;2372842;83;25710;-78
2021/12/01 02:35:48;;;;;;;3.27;2.97;;;;;;;8.63;55.59;98419.05;2385196;83;25623;-77
2021/12/01 02:39:13;;;;;;;3.15;2.90;;;;;;;8.62;55.59;98425.13;2342552;83;25690;-77
2021/12/01 02:42:35;;;;;;;3.45;3.15;;;;;;;8.62;55.57;98429.02;2374424;83;25606;-77
2021/12/01 02:49:56;;;;;;;3.77;3.47;;;;;;;8.61;55.57;98451.11;2326278;84;26343;-77
2021/12/01 02:53:43;;;;;;;4.05;3.65;;;;;;;8.61;55.52;98464.09;2358878;83;25953;-77
2021/12/01 02:57:11;;;;;;;3.72;3.45;;;;;;;8.59;55.50;98472.30;2355812;81;25654;-78
2021/12/01 03:00:34;;;;;;;4.12;3.40;;;;;;;8.57;55.47;98471.42;2358536;81;26329;-78
2021/12/01 03:03:56;;;;;;;3.67;3.37;;;;;;;8.57;55.45;98485.27;2371778;83;25753;-78
2021/12/01 03:07:17;;;;;;;3.58;3.27;;;;;;;8.56;55.43;98490.04;2367436;83;25780;-78
2021/12/01 03:10:43;;;;;;;3.72;3.42;;;;;;;8.56;55.44;98496.97;2362587;82;25678;-78
2021/12/01 03:14:11;;;;;;;3.98;3.67;;;;;;;8.55;55.42;98507.80;2372259;83;25756;-78
2021/12/01 03:17:33;;;;;;;3.47;3.17;;;;;;;8.55;55.40;98504.34;2373894;81;25826;-78
2021/12/01 03:20:57;;;;;;;3.67;3.37;;;;;;;8.54;55.40;98499.58;2374268;83;25674;-77
2021/12/01 03:24:18;;;;;;;3.62;3.35;;;;;;;8.54;55.40;98499.58;2374634;83;25664;-77
2021/12/01 03:27:40;;;;;;;3.87;3.58;;;;;;;8.53;55.38;98504.75;2342380;82;25687;-78
2021/12/01 03:31:02;;;;;;;4.30;3.92;;;;;;;8.51;55.38;98516.02;2332537;83;25770;-78
2021/12/01 03:34:47;;;;;;;3.85;3.55;;;;;;;8.50;55.37;98517.30;2356444;83;25774;-77
2021/12/01 03:38:35;;;;;;;3.52;3.22;;;;;;;8.50;55.36;98527.68;2341870;82;25717;-78
2021/12/01 03:46:13;;;;;;;4.12;3.83;;;;;;;8.48;55.36;98528.99;2325929;84;26242;-75
2021/12/01 03:49:36;;;;;;;4.50;4.20;;;;;;;8.47;55.30;98544.14;2358908;83;25791;-76
2021/12/01 03:52:57;;;;;;;4.20;3.90;;;;;;;8.45;55.30;98551.05;2358515;83;25714;-76
2021/12/01 03:56:20;;;;;;;3.95;3.65;;;;;;;8.43;55.30;98548.88;2359200;83;25739;-76
2021/12/01 03:59:41;;;;;;;3.85;3.45;;;;;;;8.41;55.30;98558.84;2358947;83;25717;-78
2021/12/01 04:03:05;;;;;;;3.42;3.17;;;;;;;8.38;55.30;98562.72;2358527;82;25617;-76
2021/12/01 04:06:27;;;;;;;3.98;3.67;;;;;;;8.37;55.30;98574.81;2359337;83;26573;-76
2021/12/01 04:09:56;;;;;;;3.02;2.80;;;;;;;8.34;55.30;98569.60;2349299;83;25602;-77
2021/12/01 04:13:24;;;;;;;4.22;3.83;;;;;;;8.31;55.31;98586.47;2345084;83;26102;-76
2021/12/01 04:16:59;;;;;;;3.40;3.10;;;;;;;8.28;55.34;98585.15;2343849;83;25824;-76
2021/12/01 04:20:23;;;;;;;3.35;3.05;;;;;;;8.22;55.34;98586.41;2349884;83;25766;-76
2021/12/01 04:23:44;;;;;;;3.58;3.27;;;;;;;8.22;55.34;98592.47;2365469;83;26240;-76
2021/12/01 04:27:11;;;;;;;3.42;3.12;;;;;;;8.19;55.37;98592.89;2355257;81;25691;-78
2021/12/01 04:30:38;;;;;;;3.47;3.20;;;;;;;8.17;55.35;98588.14;2274997;85;25880;-78
2021/12/01 04:34:15;;;;;;;4.00;3.60;;;;;;;8.15;55.36;98592.45;2270124;85;25693;-78
2021/12/01 04:46:00;;;;;;;3.77;3.47;;;;;;;8.03;55.35;98614.89;2276667;85;26042;-77
2021/12/01 04:49:27;;;;;;;3.37;3.08;;;;;;;8.02;55.34;98618.77;2276003;85;25802;-77
2021/12/01 04:52:53;;;;;;;4.00;3.70;;;;;;;7.98;55.35;98624.36;2281166;86;25649;-77
2021/12/01 04:56:23;;;;;;;3.75;3.45;;;;;;;7.96;55.34;98627.80;2281780;86;25866;-76
2021/12/01 04:59:51;;;;;;;3.42;3.12;;;;;;;7.94;55.31;98631.70;2277950;85;26049;-77
2021/12/01 05:03:12;;;;;;;3.10;2.80;;;;;;;7.90;55.30;98631.25;2257444;86;25651;-77
2021/12/01 05:06:54;;;;;;;4.35;4.05;;;;;;;7.90;55.28;98639.47;2287391;83;25718;-77
2021/12/01 05:10:35;;;;;;;3.35;3.05;;;;;;;7.88;55.27;98647.22;2356380;82;25680;-77
2021/12/01 05:14:00;;;;;;;3.52;3.22;;;;;;;7.85;55.28;98650.23;2351113;82;26107;-77
2021/12/01 05:17:21;;;;;;;4.05;3.75;;;;;;;7.83;55.27;98658.41;2348751;82;25759;-76
2021/12/01 05:20:45;;;;;;;3.58;3.27;;;;;;;7.79;55.26;98653.20;2354207;82;25619;-77
2021/12/01 05:24:14;;;;;;;4.15;3.75;;;;;;;7.78;55.26;98665.74;2351982;83;25588;-78
2021/12/01 05:27:42;;;;;;;4.00;3.70;;;;;;;7.76;55.26;98667.48;2352567;82;25631;-78
2021/12/01 05:31:03;;;;;;;4.90;4.00;;;;;;;7.72;55.23;98656.61;2362089;82;25623;-77
2021/12/01 05:34:30;;;;;;;3.75;3.45;;;;;;;7.70;55.25;98664.83;2351249;82;26136;-76
2021/12/01 05:37:52;;;;;;;4.00;3.67;;;;;;;7.69;55.25;98669.98;2353456;82;25449;-77
2021/12/01 05:41:16;;;;;;;3.25;2.98;;;;;;;7.66;55.25;98673.45;2328669;83;28466;-77
2021/12/01 05:44:37;;;;;;;4.85;4.00;;;;;;;7.65;55.27;98665.64;2350112;82;26006;-76
2021/12/01 05:47:58;;;;;;;3.43;3.13;;;;;;;7.64;55.28;98665.21;2336786;83;26121;-76
2021/12/01 05:51:21;;;;;;;4.75;3.67;;;;;;;7.63;55.30;98670.83;2353900;83;26102;-76
2021/12/01 05:54:51;;;;;;;3.72;3.42;;;;;;;7.63;55.34;98672.53;2322653;83;25694;-77
2021/12/01 05:58:34;;;;;;;3.65;3.35;;;;;;;7.61;55.35;98680.31;2320783;83;26179;-76
2021/12/01 06:02:18;;;;;;;3.90;3.60;;;;;;;7.60;55.37;98681.17;2317748;83;25675;-76
2021/12/01 06:05:59;;;;;;;4.75;4.17;;;;;;;7.59;55.39;98688.49;2343165;82;26126;-77
2021/12/01 06:09:20;;;;;;;4.80;4.40;;;;;;;7.62;55.41;98696.30;2339467;83;25635;-77
2021/12/01 06:12:42;;;;;;;4.47;4.08;;;;;;;7.62;55.44;98687.22;2361300;82;25698;-77
2021/12/01 06:16:04;;;;;;;4.50;4.20;;;;;;;7.64;55.44;98689.84;2341646;83;25497;-77
2021/12/01 06:19:25;;;;;;;4.55;4.15;;;;;;;7.64;55.45;98688.12;2353072;82;26147;-77
2021/12/01 06:22:47;;;;;;;5.07;4.67;;;;;;;7.66;55.44;98692.00;2340970;84;27089;-77
2021/12/01 06:26:08;;;;;;;4.30;4.00;;;;;;;7.68;55.44;98696.79;2363435;82;25734;-77
2021/12/01 06:29:29;;;;;;;4.37;3.98;;;;;;;7.68;55.43;98695.06;2341597;83;25796;-77
2021/12/01 06:32:51;;;;;;;4.30;3.95;;;;;;;7.71;55.41;98696.38;2363173;82;25577;-77
2021/12/01 06:36:26;;;;;;;4.60;4.20;;;;;;;7.72;55.38;98694.22;2341560;83;25687;-77
2021/12/01 06:39:47;;;;;;;4.28;3.98;;;;;;;7.73;55.36;98695.12;2334692;84;25712;-77
2021/12/01 06:43:08;;;;;;;4.73;4.33;;;;;;;7.76;55.33;98692.52;2360006;83;25914;-78
2021/12/01 06:46:30;;;;;;;5.00;4.60;;;;;;;7.77;55.31;98702.92;2341475;83;25799;-76
2021/12/01 06:49:51;;;;;;;4.15;3.85;;;;;;;7.80;55.28;98717.66;2337579;83;26070;-76
2021/12/01 06:53:12;;;;;;;4.73;4.33;;;;;;;7.82;55.24;98725.00;2359789;82;27112;-77
2021/12/01 06:56:33;;;;;;;5.15;4.65;;;;;;;7.83;55.19;98724.16;2342012;83;25242;-76
2021/12/01 06:59:54;;;;;;;5.67;5.28;;;;;;;7.85;55.16;98733.23;2328810;83;25576;-76
2021/12/01 07:03:18;;;;;;;4.65;4.25;;;;;;;7.87;55.16;98738.89;2341531;83;25782;-76
2021/12/01 07:06:42;;;;;;;5.60;4.37;;;;;;;7.90;55.10;98732.86;2363629;82;26362;-77
2021/12/01 07:10:10;;;;;;;5.15;4.75;;;;;;;7.93;55.08;98728.97;2342140;83;25607;-76
2021/12/01 07:13:33;;;;;;;5.15;4.75;;;;;;;7.94;55.04;98726.41;2363158;82;25793;-76
2021/12/01 07:17:14;;;;;;;5.50;4.95;;;;;;;7.97;55.00;98732.05;2339069;83;25630;-76
2021/12/01 07:20:36;;;;;;;5.92;5.33;;;;;;;8.02;54.97;98739.42;2354071;83;25689;-76
2021/12/01 07:24:08;;;;;;;5.80;5.30;;;;;;;8.03;54.95;98742.45;2326234;83;25910;-76
2021/12/01 07:27:29;;;;;;;6.00;5.53;;;;;;;8.06;54.91;98750.27;2358279;81;25677;-77
2021/12/01 07:31:10;;;;;;;6.30;5.70;;;;;;;8.09;54.89;98741.64;2324030;83;25907;-78
2021/12/01 07:34:31;;;;;;;6.22;5.62;;;;;;;8.15;54.86;98739.09;2361734;83;34745;-76
2021/12/01 07:37:53;;;;;;;5.90;5.47;;;;;;;8.22;54.83;98738.27;2366599;83;25640;-77
2021/12/01 07:41:14;;;;;;;5.75;5.15;;;;;;;8.29;54.79;98738.74;2345028;82;25710;-76
2021/12/01 07:44:35;;;;;;;6.33;5.83;;;;;;;8.39;54.80;98725.42;2362360;83;25650;-78
2021/12/01 07:48:13;;;;;;;5.40;4.90;;;;;;;8.47;54.69;98728.92;2365436;83;25643;-77
2021/12/01 07:51:36;;;;;;;9.55;6.62;;;;;;;8.53;54.59;98741.08;2337204;83;25700;-78
2021/12/01 07:54:57;;;;;;;6.40;5.80;;;;;;;8.50;54.52;98738.92;2376158;82;25645;-78
2021/12/01 07:58:18;;;;;;;6.62;6.00;;;;;;;8.49;54.46;98741.06;2372422;83;25708;-76
2021/12/01 08:01:39;;;;;;;6.80;6.10;;;;;;;8.48;54.41;98746.27;2377993;83;28098;-78
2021/12/01 08:05:00;;;;;;;8.12;6.38;;;;;;;8.46;54.36;98738.45;2395852;82;28043;-78
2021/12/01 08:08:29;;;;;;;7.08;6.47;;;;;;;8.46;54.36;98738.45;2398359;82;25724;-78
2021/12/01 08:11:59;;;;;;;6.87;6.05;;;;;;;8.47;54.36;98736.71;2388883;82;25644;-79
2021/12/01 08:15:22;;;;;;;6.55;6.00;;;;;;;8.45;54.34;98727.63;2375639;82;25769;-78
2021/12/01 08:18:43;;;;;;;7.20;6.60;;;;;;;8.49;54.35;98729.81;2352359;83;25737;-78
2021/12/01 08:22:08;;;;;;;7.47;6.63;;;;;;;8.50;54.36;98716.85;2357332;82;30052;-77
2021/12/01 08:25:28;;;;;;;8.20;7.50;;;;;;;8.54;54.45;98705.15;2360657;83;25943;-76
2021/12/01 08:28:49;;;;;;;8.15;7.28;;;;;;;8.80;54.49;98706.13;2363572;83;25702;-76
2021/12/01 08:32:34;;;;;;;9.03;8.33;;;;;;;10.01;54.09;98707.60;2317762;83;25863;-80
2021/12/01 08:36:17;;;;;;;7.95;7.17;;;;;;;10.94;52.96;98705.21;2327971;83;26134;-79
2021/12/01 08:40:00;;;;;;;8.20;7.42;;;;;;;11.21;52.12;98710.72;2330660;84;25849;-79
2021/12/01 08:43:30;;;;;;;8.08;7.22;;;;;;;11.69;51.51;98712.56;2182596;88;25789;-81
2021/12/01 08:46:53;;;;;;;7.22;6.58;;;;;;;11.85;50.96;98708.13;2177478;85;25991;-80
2021/12/01 08:50:20;;;;;;;7.10;6.45;;;;;;;12.35;50.36;98701.98;2193497;88;26058;-80
2021/12/01 08:53:45;;;;;;;8.13;7.42;;;;;;;12.32;49.89;98708.13;2206958;88;26677;-79
2021/12/01 08:57:07;;;;;;;7.62;7.03;;;;;;;12.13;49.75;98706.13;2198769;89;26344;-80
2021/12/01 09:00:53;;;;;;;8.08;7.22;;;;;;;11.98;49.67;98694.50;2205046;89;25837;-78
2021/12/01 09:04:25;;;;;;;8.55;7.72;;;;;;;12.01;49.63;98689.25;2205691;88;25811;-78
2021/12/01 09:07:46;;;;;;;8.63;7.80;;;;;;;12.11;49.50;98684.36;2243838;86;25744;-78
2021/12/01 09:11:07;;;;;;;7.53;6.83;;;;;;;12.08;49.37;98678.30;2210918;87;31599;-80
2021/12/01 09:15:11;;;;;;;6.72;6.12;;;;;;;11.92;49.42;98677.61;2213365;86;25832;-80
2021/12/01 09:18:27;;;;;;;9.05;7.90;;;;;;;11.77;49.49;98679.41;2208393;86;25990;-78
2021/12/01 09:21:49;;;;;;;7.92;7.22;;;;;;;11.57;49.64;98675.66;2363022;83;25632;-77
2021/12/01 09:25:10;;;;;;;7.50;6.87;;;;;;;11.43;49.81;98667.52;2357526;83;25772;-79
2021/12/01 09:28:31;;;;;;;7.83;7.10;;;;;;;11.37;50.02;98667.56;2364097;83;25784;-80
2021/12/01 09:31:52;;;;;;;8.05;7.12;;;;;;;11.33;50.07;98666.27;2355689;84;25222;-80
2021/12/01 09:35:15;;;;;;;8.33;7.62;;;;;;;11.30;50.16;98671.51;2355364;84;25658;-79
2021/12/01 09:38:36;;;;;;;7.50;6.80;;;;;;;11.21;50.27;98662.47;2349803;83;25705;-79
2021/12/01 09:41:58;;;;;;;7.33;6.72;;;;;;;11.13;50.41;98667.29;2355647;82;25694;-80
2021/12/01 09:45:23;;;;;;;7.08;6.47;;;;;;;11.04;50.57;98659.96;2355518;83;25683;-81
2021/12/01 09:48:44;;;;;;;9.38;6.80;;;;;;;10.92;50.73;98650.89;2355580;84;25658;-79
2021/12/01 09:52:08;;;;;;;7.03;6.42;;;;;;;10.81;50.87;98650.95;2355475;84;25674;-79
2021/12/01 09:55:33;;;;;;;7.28;6.55;;;;;;;10.76;51.06;98650.09;2355170;82;25745;-79
2021/12/01 09:58:54;;;;;;;10.32;6.28;;;;;;;10.79;51.20;98636.19;2355767;83;25643;-80
2021/12/01 10:02:17;;;;;;;7.37;6.72;;;;;;;10.86;51.21;98629.63;2355614;83;25970;-79
2021/12/01 10:09:24;;;;;;;6.20;5.60;;;;;;;10.88;51.25;98622.67;2355712;84;25231;-79
2021/12/01 10:13:28;;;;;;;6.28;5.67;;;;;;;10.92;51.41;98617.45;2352201;84;25678;-80
2021/12/01 10:16:55;;;;;;;6.90;6.30;;;;;;;11.20;51.43;98617.67;2355566;82;25786;-79
2021/12/01 10:20:18;;;;;;;6.58;6.00;;;;;;;11.83;51.10;98611.48;2349036;82;26198;-78
2021/12/01 10:23:47;;;;;;;6.75;6.12;;;;;;;12.53;50.71;98611.17;2354291;84;25862;-79
2021/12/01 10:27:11;;;;;;;;;;;;;;;13.37;50.01;98607.83;2358258;84;25662;-78
2021/12/01 10:30:45;;;;;;;6.97;6.35;;;;;;;13.99;48.97;98606.31;2346173;84;25336;-77
2021/12/01 10:34:47;;;;;;;7.78;7.08;;;;;;;14.22;48.38;98607.19;2341305;84;25690;-80
2021/12/01 10:38:20;;;;;;;6.70;6.15;;;;;;;13.92;47.75;98604.70;2258474;87;25843;-75
2021/12/01 10:41:43;;;;;;;6.65;6.05;;;;;;;13.92;47.75;98604.70;2242726;85;26217;-78
2021/12/01 10:45:45;;;;;;;5.70;5.08;;;;;;;13.61;47.84;98602.62;2246926;87;25855;-79
2021/12/01 10:50:22;;;;;;;5.92;4.53;;;;;;;13.52;50.65;98600.16;2242954;87;26182;-78
2021/12/01 10:54:35;;;;;;;5.65;5.15;;;;;;;13.69;51.61;98591.56;2234618;87;26224;-78
2021/12/01 10:58:16;;;;;;;6.83;6.12;;;;;;;13.32;50.93;98569.08;2204429;88;25856;-80
2021/12/01 11:01:37;;;;;;;5.95;5.30;;;;;;;13.32;50.93;98569.08;2264994;86;25848;-78
2021/12/01 11:05:01;;;;;;;9.03;5.92;;;;;;;13.17;51.18;98588.48;2278066;82;26118;-81
2021/12/01 11:08:29;;;;;;;5.90;5.40;;;;;;;12.80;51.29;98575.54;2279493;86;25787;-79
2021/12/01 11:12:02;;;;;;;5.62;5.12;;;;;;;12.80;51.29;98575.54;2278445;86;25744;-80
2021/12/01 11:16:07;;;;;;;7.60;6.75;;;;;;;12.64;51.38;98578.35;2238125;85;25753;-82
2021/12/01 11:20:06;;;;;;;7.55;6.95;;;;;;;12.34;50.59;98564.38;2265170;86;26183;-79
2021/12/01 11:27:57;;;;;;;8.55;7.75;;;;;;;11.77;50.02;98561.08;2156802;89;26097;-79
2021/12/01 11:31:33;;;;;;;8.95;7.97;;;;;;;11.46;49.82;98547.03;2169586;90;26068;-82
2021/12/01 11:34:54;;;;;;;8.53;7.80;;;;;;;11.27;49.63;98541.14;2167278;89;25841;-84
2021/12/01 11:38:28;;;;;;;8.28;7.50;;;;;;;11.08;49.23;98540.41;2169731;90;25778;-80
2021/12/01 11:41:55;;;;;;;8.88;7.78;;;;;;;10.90;49.04;98538.37;2174550;90;26514;-80
2021/12/01 11:45:16;;;;;;;11.55;8.00;;;;;;;10.66;48.95;98531.15;2179821;88;25813;-78
2021/12/01 11:48:48;;;;;;;8.43;7.62;;;;;;;10.53;49.20;98525.17;2195538;86;26535;-79
2021/12/01 11:52:10;;;;;;;8.20;7.00;;;;;;;10.47;49.32;98513.48;2294531;85;26555;-80
2021/12/01 11:56:18;;;;;;;9.25;8.15;;;;;;;10.38;49.29;98514.39;2293168;86;25746;-81
2021/12/01 11:59:48;;;;;;;10.98;9.15;;;;;;;10.24;49.33;98504.45;2286378;84;25720;-79
2021/12/01 12:03:26;;;;;;;7.97;7.25;;;;;;;10.12;49.39;98504.09;2270825;84;26377;-80
2021/12/01 12:07:00;;;;;;;8.83;7.03;;;;;;;10.04;49.24;98499.78;2238994;86;25378;-79
2021/12/01 12:10:24;;;;;;;9.40;7.47;;;;;;;9.89;49.05;98498.98;2277792;86;25874;-79
2021/12/01 12:14:07;;;;;;;9.50;7.95;;;;;;;9.77;49.16;98480.80;2282066;85;25742;-78
2021/12/01 12:17:35;;;;;;;9.88;8.38;;;;;;;9.69;49.20;98482.14;2283075;84;25724;-79
2021/12/01 12:21:35;;;;;;;9.83;8.83;;;;;;;9.61;49.30;98470.87;2283788;85;25684;-79
2021/12/01 12:24:54;;;;;;;;;;;;;;;9.53;49.43;98465.28;2285647;84;25832;-80
2021/12/01 12:28:34;;;;;;;9.40;7.42;;;;;;;9.48;49.54;98452.27;2287451;85;25604;-79
2021/12/01 12:32:18;;;;;;;8.28;6.85;;;;;;;9.46;49.58;98448.83;2287116;85;25746;-81
2021/12/01 12:35:43;;;;;;;9.10;7.83;;;;;;;9.42;49.75;98439.31;2295769;80;26510;-80
2021/12/01 12:39:28;;;;;;;7.70;6.95;;;;;;;9.42;49.90;98437.57;2295339;86;25759;-81
2021/12/01 12:43:11;;;;;;;7.97;7.20;;;;;;;9.43;50.05;98432.79;2278661;86;26167;-80
2021/12/01 12:46:32;;;;;;;7.22;6.62;;;;;;;9.38;50.01;98415.45;2293189;84;25803;-79
2021/12/01 12:50:02;;;;;;;7.20;6.50;;;;;;;9.32;50.06;98408.56;2289421;86;25708;-80
2021/12/01 12:53:24;;;;;;;7.90;7.10;;;;;;;9.28;50.04;98402.95;2292657;84;25716;-78
2021/12/01 12:57:08;;;;;;;7.30;6.70;;;;;;;9.27;50.11;98397.30;2286641;86;25787;-81
2021/12/01 13:00:47;;;;;;;7.50;6.85;;;;;;;9.26;50.18;98388.22;2285072;80;25766;-79
2021/12/01 13:04:59;;;;;;;7.97;7.17;;;;;;;9.23;50.10;98378.25;2213050;89;25798;-80
2021/12/01 13:08:43;;;;;;;8.18;7.42;;;;;;;9.16;50.07;98374.38;2232155;88;25989;-80
2021/12/01 13:12:06;;;;;;;8.00;7.22;;;;;;;9.08;50.05;98374.81;2206228;87;25950;-78
2021/12/01 13:15:44;;;;;;;7.28;6.50;;;;;;;8.98;50.18;98367.50;2235426;86;25715;-81
2021/12/01 13:19:08;;;;;;;7.08;6.37;;;;;;;8.94;50.16;98360.16;2254911;85;25798;-79
2021/12/01 13:22:29;;;;;;;7.12;6.42;;;;;;;8.85;50.23;98352.37;2244768;86;26471;-80
2021/12/01 13:26:32;;;;;;;7.97;6.27;;;;;;;8.79;50.34;98354.97;2247266;86;28117;-81
2021/12/01 13:30:19;;;;;;;6.65;5.95;;;;;;;8.77;50.42;98355.83;2174385;88;25887;-81
2021/12/01 13:34:21;;;;;;;6.45;5.85;;;;;;;8.74;50.62;98350.20;2190600;88;25693;-81
2021/12/01 13:37:59;;;;;;;6.37;5.78;;;;;;;8.78;50.64;98356.29;2194014;89;26242;-81
2021/12/01 13:41:21;;;;;;;5.92;5.42;;;;;;;8.75;50.73;98345.46;2193715;88;26307;-80
2021/12/01 13:44:55;;;;;;;6.33;5.83;;;;;;;8.76;50.83;98340.69;2221061;88;26125;-80
2021/12/01 13:48:30;;;;;;;5.62;5.15;;;;;;;8.78;50.91;98332.91;2216317;88;25862;-80
2021/12/01 13:51:57;;;;;;;5.28;4.78;;;;;;;8.75;50.97;98311.25;2214894;86;25735;-81
2021/12/01 13:55:32;;;;;;;6.67;4.87;;;;;;;8.75;51.02;98308.66;2219318;86;25792;-81
2021/12/01 13:59:01;;;;;;;5.37;4.87;;;;;;;8.77;51.08;98294.34;2235065;85;25701;-81
2021/12/01 14:02:29;;;;;;;4.83;4.42;;;;;;;8.75;51.19;98286.57;2385062;81;25789;-81
2021/12/01 14:05:53;;;;;;;4.85;4.45;;;;;;;8.74;51.29;98271.86;2396534;82;25740;-81
2021/12/01 14:09:22;;;;;;;5.00;4.60;;;;;;;8.74;51.32;98271.86;2378495;82;25164;-80
2021/12/01 14:13:22;;;;;;;5.73;4.57;;;;;;;8.70;51.40;98261.03;2372394;82;25677;-80
2021/12/01 14:17:15;;;;;;;5.05;4.55;;;;;;;8.68;51.47;98247.64;2382573;81;26064;-80
2021/12/01 14:20:38;;;;;;;4.60;4.05;;;;;;;8.65;51.56;98238.12;2371492;82;25724;-80
2021/12/01 14:24:34;;;;;;;5.65;4.10;;;;;;;8.62;51.63;98238.13;2217746;86;27219;-81
2021/12/01 14:28:17;;;;;;;7.25;4.95;;;;;;;8.58;51.70;98226.02;2222263;88;26105;-80
2021/12/01 14:32:09;;;;;;;4.92;4.50;;;;;;;8.56;51.78;98223.00;2184003;87;26488;-80
2021/12/01 14:39:34;;;;;;;13.68;5.85;;;;;;;8.52;51.92;98198.77;2178812;89;25868;-79
2021/12/01 14:43:03;;;;;;;7.00;5.08;;;;;;;8.49;52.00;98187.95;2188729;89;25775;-80
2021/12/01 14:47:16;;;;;;;7.45;5.08;;;;;;;8.47;52.06;98177.13;2178117;89;25768;-80
2021/12/01 14:50:45;;;;;;;7.17;5.25;;;;;;;8.44;52.12;98172.84;2190292;87;26057;-82
2021/12/01 14:54:25;;;;;;;6.30;5.60;;;;;;;8.40;53.13;98167.20;2186242;88;26248;-80
2021/12/01 14:57:57;;;;;;;8.28;4.92;;;;;;;8.53;53.05;98164.14;2156293;90;26531;-81
2021/12/01 15:01:37;;;;;;;6.97;5.45;;;;;;;8.55;53.14;98151.16;2170254;88;25743;-81
2021/12/01 15:05:14;;;;;;;7.95;5.60;;;;;;;8.53;53.13;98145.09;2194430;88;25812;-80
2021/12/01 15:08:41;;;;;;;11.40;6.12;;;;;;;8.49;53.13;98147.70;2225581;88;25858;-79
2021/12/01 15:12:02;;;;;;;4.15;3.70;;;;;;;8.44;53.15;98141.69;2194974;88;25870;-81
2021/12/01 15:15:35;;;;;;;6.20;4.80;;;;;;;8.58;57.62;98133.84;2191975;88;25730;-79
2021/12/01 15:19:03;;;;;;;7.45;5.05;;;;;;;9.02;56.31;98130.58;2222741;84;25764;-79
2021/12/01 15:22:24;;;;;;;7.60;5.28;;;;;;;8.98;55.73;98127.13;2339390;83;25833;-80
2021/12/01 15:25:46;;;;;;;10.63;6.07;;;;;;;8.88;55.58;98109.43;2346647;83;29076;-81
2021/12/01 15:29:11;;;;;;;6.58;5.75;;;;;;;8.78;55.50;98119.89;2353718;82;26320;-79
2021/12/01 15:32:56;;;;;;;;;;;;;;;;;;;;;
2021/12/01 15:36:27;;;;;;;7.33;6.10;;;;;;;8.57;55.42;98097.47;2364146;82;25681;-80
2021/12/01 15:39:54;;;;;;;8.60;5.70;;;;;;;8.48;55.38;98095.80;2360354;82;25658;-80
2021/12/01 15:43:15;;;;;;;9.35;6.72;;;;;;;8.43;55.34;98089.30;2310855;82;26000;-78
2021/12/01 15:46:47;;;;;;;10.28;6.30;;;;;;;8.42;55.30;98082.84;2309788;84;25729;-80
2021/12/01 15:50:24;;;;;;;9.28;5.95;;;;;;;8.38;55.23;98074.20;2310792;84;25936;-79
2021/12/01 15:53:42;;;;;;;12.37;7.53;;;;;;;8.35;55.16;98069.43;2284213;84;26097;-81
2021/12/01 15:57:09;;;;;;;7.50;5.97;;;;;;;8.31;55.10;98054.75;2251876;85;27041;-82
2021/12/01 16:00:47;;;;;;;6.87;6.17;;;;;;;8.27;55.02;98062.55;2294192;85;25929;-82
2021/12/01 16:04:08;;;;;;;10.32;6.28;;;;;;;8.21;54.99;98033.16;2333423;82;25691;-82
2021/12/01 16:08:05;;;;;;;6.97;6.23;;;;;;;8.20;54.94;98035.30;2356857;82;28027;-80
2021/12/01 16:11:47;;;;;;;9.35;7.95;;;;;;;8.18;54.91;98026.25;2365964;82;26079;-81
2021/12/01 16:15:10;;;;;;;8.13;6.47;;;;;;;8.16;54.88;98025.81;2363816;82;25680;-82
2021/12/01 16:18:49;;;;;;;8.53;7.70;;;;;;;8.13;54.86;98016.74;2357076;82;25942;-82
2021/12/01 16:22:11;;;;;;;13.03;7.35;;;;;;;8.09;54.87;98012.45;2367103;82;26087;-80
2021/12/01 16:25:33;;;;;;;10.13;6.65;;;;;;;8.08;54.84;98002.95;2366891;83;25904;-81
2021/12/01 16:33:41;;;;;;;8.50;6.70;;;;;;;8.01;54.86;98014.64;2291962;83;26126;-81
2021/12/01 16:37:33;;;;;;;6.92;6.22;;;;;;;7.96;54.86;97993.03;2214079;88;25834;-80
2021/12/01 16:41:08;;;;;;;9.58;6.70;;;;;;;7.94;54.88;97999.98;2208193;89;25678;-81
2021/12/01 16:44:31;;;;;;;8.50;6.80;;;;;;;7.90;54.90;97984.44;2265165;86;26282;-80
2021/12/01 16:48:54;;;;;;;8.95;6.67;;;;;;;7.89;54.95;98000.41;2267071;83;25676;-82
2021/12/01 16:52:37;;;;;;;8.15;6.95;;;;;;;7.86;54.94;97984.00;2286625;83;26195;-80
2021/12/01 16:56:09;;;;;;;8.13;6.95;;;;;;;7.83;55.01;97965.45;2276992;85;25743;-81
2021/12/01 16:59:38;;;;;;;7.50;6.78;;;;;;;7.83;55.05;97956.78;2250470;85;25728;-81
2021/12/01 17:03:32;;;;;;;8.35;6.97;;;;;;;7.83;55.06;97949.89;2215604;87;25761;-79
2021/12/01 17:10:57;;;;;;;7.20;6.50;;;;;;;7.82;55.14;97923.50;2250990;86;26323;-80
2021/12/01 17:14:18;;;;;;;8.73;6.80;;;;;;;7.84;55.18;97926.11;2239595;87;26380;-81
2021/12/01 17:17:47;;;;;;;8.23;5.90;;;;;;;7.82;55.21;97929.98;2242929;85;25703;-81
2021/12/01 17:21:21;;;;;;;7.58;6.08;;;;;;;7.80;55.24;97927.41;2240402;87;26190;-81
2021/12/01 17:24:48;;;;;;;7.70;6.90;;;;;;;7.80;55.28;97908.41;2249089;85;25912;-80